createdAt,value
2022-11-05T00:00:10.409Z,91.83
2022-11-05T00:03:00.771Z,90.20
2022-11-05T00:05:53.156Z,90.20
2022-11-05T00:08:42.954Z,88.10
2022-11-05T00:11:18.389Z,93.33
2022-11-05T00:14:07.988Z,89.37
2022-11-05T00:16:47.972Z,90.30
2022-11-05T00:19:22.137Z,91.60
2022-11-05T00:22:14.367Z,90.43
2022-11-05T00:25:04.348Z,90.67
2022-11-05T00:27:39.710Z,92.93
2022-11-05T00:30:15.543Z,97.10
2022-11-05T00:32:51.147Z,85.93
2022-11-05T00:35:27.335Z,89.93
2022-11-05T00:38:03.639Z,89.37
2022-11-05T00:40:37.853Z,92.03
2022-11-05T00:43:27.400Z,74.83
2022-11-05T00:46:05.430Z,77.30
2022-11-05T00:48:55.402Z,84.47
2022-11-05T00:51:29.045Z,79.20
2022-11-05T00:54:05.371Z,82.73
2022-11-05T00:56:40.394Z,82.43
2022-11-05T00:59:15.123Z,81.47
2022-11-05T01:01:51.904Z,83.37
2022-11-05T01:04:27.300Z,81.97
2022-11-05T01:07:01.750Z,78.27
2022-11-05T01:09:38.357Z,83.10
2022-11-05T01:12:12.647Z,79.03
2022-11-05T01:14:47.126Z,76.60
2022-11-05T01:17:20.663Z,74.53
2022-11-05T01:19:54.967Z,75.13
2022-11-05T01:22:29.288Z,76.43
2022-11-05T01:25:04.773Z,83.93
2022-11-05T01:27:40.967Z,79.30
2022-11-05T01:30:16.018Z,84.53
2022-11-05T01:32:50.480Z,86.57
2022-11-05T01:35:25.452Z,79.37
2022-11-05T01:37:59.356Z,81.23
2022-11-05T01:40:35.506Z,73.90
2022-11-05T01:43:14.421Z,86.67
2022-11-05T01:45:50.291Z,74.87
2022-11-05T01:48:29.211Z,77.77
2022-11-05T01:51:04.999Z,79.17
2022-11-05T01:53:44.000Z,80.63
2022-11-05T01:56:22.261Z,76.07
2022-11-05T01:58:58.497Z,77.13
2022-11-05T02:01:33.922Z,71.33
2022-11-05T02:04:13.455Z,81.97
2022-11-05T02:06:50.410Z,78.83
2022-11-05T02:09:27.702Z,72.60
2022-11-05T02:12:04.821Z,82.03
2022-11-05T02:14:40.559Z,79.80
2022-11-05T02:17:21.013Z,85.60
2022-11-05T02:20:28.360Z,88.03
2022-11-05T02:23:48.967Z,76.20
2022-11-05T02:26:46.296Z,75.20
2022-11-05T02:30:06.600Z,79.70
2022-11-05T02:32:54.543Z,76.60
2022-11-05T02:35:44.006Z,75.80
2022-11-05T02:38:29.357Z,75.33
2022-11-05T02:41:10.202Z,77.30
2022-11-05T02:43:56.222Z,75.07
2022-11-05T02:46:38.630Z,69.53
2022-11-05T02:49:26.612Z,72.33
2022-11-05T02:52:06.103Z,71.03
2022-11-05T02:54:44.408Z,72.90
2022-11-05T02:57:19.314Z,69.20
2022-11-05T02:59:53.986Z,74.03
2022-11-05T03:02:28.126Z,65.47
2022-11-05T03:05:04.366Z,68.83
2022-11-05T03:07:49.108Z,64.13
2022-11-05T03:10:39.734Z,68.23
2022-11-05T03:13:22.225Z,72.87
2022-11-05T03:16:04.341Z,72.03
2022-11-05T03:18:45.609Z,74.33
2022-11-05T03:21:25.927Z,69.00
2022-11-05T03:24:03.698Z,66.43
2022-11-05T03:26:41.541Z,63.10
2022-11-05T03:29:21.135Z,63.17
2022-11-05T03:31:57.768Z,62.77
2022-11-05T03:34:37.237Z,65.40
2022-11-05T03:37:14.427Z,60.13
2022-11-05T03:39:51.882Z,61.33
2022-11-05T03:42:29.992Z,54.83
2022-11-05T03:45:10.716Z,57.97
2022-11-05T03:47:48.503Z,61.50
2022-11-05T03:50:27.437Z,58.90
2022-11-05T03:53:09.439Z,61.23
2022-11-05T03:56:35.036Z,65.47
2022-11-05T03:59:14.521Z,67.63
2022-11-05T04:01:49.351Z,66.00
2022-11-05T04:04:24.095Z,74.33
2022-11-05T04:07:13.721Z,71.83
2022-11-05T04:10:05.471Z,70.50
2022-11-05T04:12:55.180Z,64.80
2022-11-05T04:15:55.558Z,75.70
2022-11-05T04:18:27.582Z,77.30
2022-11-05T04:21:17.513Z,77.30
2022-11-05T04:24:07.237Z,75.73
2022-11-05T04:26:44.898Z,79.00
2022-11-05T04:29:35.000Z,73.77
2022-11-05T04:32:09.732Z,75.07
2022-11-05T04:34:45.858Z,77.17
2022-11-05T04:37:20.345Z,90.23
2022-11-05T04:39:55.527Z,83.80
2022-11-05T04:42:33.536Z,81.20
2022-11-05T04:45:07.483Z,87.80
2022-11-05T04:47:43.531Z,79.20
2022-11-05T04:50:18.368Z,79.23
2022-11-05T04:52:52.647Z,74.90
2022-11-05T04:55:26.756Z,78.70
2022-11-05T04:58:02.122Z,81.57
2022-11-05T05:00:36.823Z,78.30
2022-11-05T05:03:12.083Z,85.90
2022-11-05T05:05:46.666Z,82.87
2022-11-05T05:08:20.388Z,86.13
2022-11-05T05:10:54.340Z,84.93
2022-11-05T05:13:30.611Z,80.97
2022-11-05T05:16:09.058Z,85.23
2022-11-05T05:18:46.235Z,85.87
2022-11-05T05:21:36.925Z,86.07
2022-11-05T05:24:12.766Z,88.50
2022-11-05T05:26:48.532Z,89.67
2022-11-05T05:29:25.180Z,83.40
2022-11-05T05:31:59.157Z,89.83
2022-11-05T05:34:32.920Z,80.80
2022-11-05T05:37:07.251Z,91.73
2022-11-05T05:39:42.185Z,99.23
2022-11-05T05:42:16.243Z,94.93
2022-11-05T05:44:53.495Z,93.50
2022-11-05T05:47:27.744Z,103.77
2022-11-05T05:50:02.067Z,89.53
2022-11-05T05:52:36.698Z,99.13
2022-11-05T05:55:13.863Z,97.97
2022-11-05T05:57:47.814Z,94.00
2022-11-05T06:00:23.282Z,97.57
2022-11-05T06:03:14.731Z,98.97
2022-11-05T06:05:49.812Z,108.10
2022-11-05T06:08:24.221Z,110.40
2022-11-05T06:10:58.931Z,110.23
2022-11-05T06:13:34.144Z,105.00
2022-11-05T06:16:12.698Z,110.27
2022-11-05T06:18:46.091Z,108.90
2022-11-05T06:21:21.629Z,112.50
2022-11-05T06:23:55.568Z,116.83
2022-11-05T06:26:29.581Z,107.27
2022-11-05T06:29:03.712Z,113.13
2022-11-05T06:31:41.526Z,104.77
2022-11-05T06:34:17.567Z,106.83
2022-11-05T06:36:51.377Z,97.00
2022-11-05T06:39:26.468Z,94.63
2022-11-05T06:44:54.458Z,97.53
2022-11-05T06:47:29.911Z,105.70
2022-11-05T06:50:03.827Z,93.13
2022-11-05T06:52:41.271Z,88.97
2022-11-05T06:55:16.990Z,92.33
2022-11-05T06:57:50.784Z,96.70
2022-11-05T07:00:26.527Z,93.10
2022-11-05T07:03:08.354Z,88.40
2022-11-05T07:05:44.259Z,89.17
2022-11-05T07:08:19.488Z,87.23
2022-11-05T07:10:54.021Z,89.00
2022-11-05T07:13:28.491Z,87.70
2022-11-05T07:16:02.425Z,85.03
2022-11-05T07:18:38.595Z,97.43
2022-11-05T07:21:12.951Z,89.83
2022-11-05T07:23:47.436Z,90.57
2022-11-05T07:26:21.440Z,95.63
2022-11-05T07:28:56.117Z,85.70
2022-11-05T07:31:30.529Z,87.63
2022-11-05T07:34:06.025Z,88.17
2022-11-05T07:36:40.626Z,83.63
2022-11-05T07:39:14.613Z,87.80
2022-11-05T07:41:48.418Z,91.23
2022-11-05T07:44:22.202Z,89.10
2022-11-05T07:46:55.712Z,85.63
2022-11-05T07:49:32.041Z,86.50
2022-11-05T07:52:06.157Z,81.90
2022-11-05T07:54:40.587Z,87.37
2022-11-05T07:57:14.123Z,93.20
2022-11-05T07:59:48.498Z,82.60
2022-11-05T08:02:22.317Z,87.17
2022-11-05T08:04:58.897Z,93.73
2022-11-05T08:07:33.894Z,88.20
2022-11-05T08:10:07.553Z,89.60
2022-11-05T08:12:41.725Z,86.53
2022-11-05T08:15:16.764Z,84.47
2022-11-05T08:17:50.353Z,83.80
2022-11-05T08:20:25.888Z,83.17
2022-11-05T08:23:00.491Z,87.17
2022-11-05T08:25:35.869Z,85.43
2022-11-05T08:28:12.167Z,82.70
2022-11-05T08:30:45.712Z,81.07
2022-11-05T08:33:18.697Z,78.43
2022-11-05T08:35:55.543Z,79.13
2022-11-05T08:38:29.587Z,83.03
2022-11-05T08:41:03.374Z,81.07
2022-11-05T08:43:37.589Z,86.17
2022-11-05T08:46:12.406Z,82.00
2022-11-05T08:48:46.686Z,84.53
2022-11-05T08:51:22.960Z,86.77
2022-11-05T08:53:56.985Z,86.73
2022-11-05T08:56:34.896Z,86.07
2022-11-05T08:59:09.072Z,94.87
2022-11-05T09:01:44.211Z,96.40
2022-11-05T09:04:17.536Z,89.67
2022-11-05T09:06:53.674Z,90.73
2022-11-05T09:09:27.764Z,86.83
2022-11-05T09:12:17.684Z,85.13
2022-11-05T09:14:51.625Z,84.07
2022-11-05T09:17:26.573Z,84.40
2022-11-05T09:20:00.469Z,87.10
2022-11-05T09:22:42.094Z,89.37
2022-11-05T09:25:17.123Z,87.07
2022-11-05T09:27:51.825Z,76.03
2022-11-05T09:30:26.536Z,86.30
2022-11-05T09:33:00.695Z,89.27
2022-11-05T09:35:34.142Z,87.30
2022-11-05T09:38:11.741Z,83.87
2022-11-05T09:40:50.934Z,85.60
2022-11-05T09:43:31.480Z,101.13
2022-11-05T09:46:13.355Z,101.87
2022-11-05T09:48:49.716Z,114.00
2022-11-05T09:51:25.623Z,111.23
2022-11-05T09:54:05.460Z,107.13
2022-11-05T09:56:44.408Z,118.97
2022-11-05T09:59:23.177Z,113.87
2022-11-05T10:02:05.044Z,112.90
2022-11-05T10:04:39.904Z,123.60
2022-11-05T10:07:19.943Z,114.00
2022-11-05T10:10:00.163Z,124.13
2022-11-05T10:12:40.768Z,116.43
2022-11-05T10:15:21.901Z,120.13
2022-11-05T10:18:02.617Z,114.37
2022-11-05T10:20:38.882Z,127.30
2022-11-05T10:23:16.786Z,125.47
2022-11-05T10:25:56.081Z,134.67
2022-11-05T10:28:31.897Z,115.73
2022-11-05T10:31:07.581Z,117.93
2022-11-05T10:33:48.577Z,131.00
2022-11-05T10:36:27.454Z,128.20
2022-11-05T10:39:04.038Z,131.17
2022-11-05T10:41:54.524Z,131.67
2022-11-05T10:44:40.106Z,137.67
2022-11-05T10:47:44.709Z,137.23
2022-11-05T10:50:23.030Z,146.93
2022-11-05T10:53:03.411Z,144.07
2022-11-05T10:55:40.760Z,139.43
2022-11-05T10:58:26.444Z,142.30
2022-11-05T11:01:11.294Z,140.93
2022-11-05T11:03:48.730Z,136.50
2022-11-05T11:06:27.936Z,142.10
2022-11-05T11:09:03.997Z,147.03
2022-11-05T11:11:40.363Z,147.63
2022-11-05T11:14:24.548Z,147.63
2022-11-05T11:16:58.959Z,150.57
2022-11-05T11:19:34.905Z,149.77
2022-11-05T11:22:23.895Z,156.43
2022-11-05T11:24:57.939Z,144.20
2022-11-05T11:27:35.099Z,156.27
2022-11-05T11:30:21.012Z,150.33
2022-11-05T11:32:55.427Z,149.17
2022-11-05T11:35:30.989Z,156.43
2022-11-05T11:38:04.751Z,150.90
2022-11-05T11:40:40.791Z,151.10
2022-11-05T11:43:25.819Z,146.30
2022-11-05T11:46:06.818Z,158.80
2022-11-05T11:48:46.937Z,165.63
2022-11-05T11:51:36.296Z,160.33
2022-11-05T11:54:24.796Z,152.70
2022-11-05T11:57:01.895Z,154.13
2022-11-05T12:00:06.669Z,159.90
2022-11-05T12:03:01.589Z,149.77
2022-11-05T12:05:43.371Z,149.00
2022-11-05T12:08:47.010Z,151.40
2022-11-05T12:11:29.849Z,159.03
2022-11-05T12:14:15.018Z,139.17
2022-11-05T12:17:14.717Z,144.53
2022-11-05T12:20:07.962Z,132.47
2022-11-05T12:22:57.507Z,146.47
2022-11-05T12:25:57.073Z,135.20
2022-11-05T12:29:18.377Z,138.10
2022-11-05T12:32:15.223Z,144.63
2022-11-05T12:35:01.368Z,132.93
2022-11-05T12:37:42.914Z,137.97
2022-11-05T12:40:47.349Z,131.97
2022-11-05T12:43:32.812Z,131.10
2022-11-05T12:46:17.480Z,134.27
2022-11-05T12:49:09.103Z,132.33
2022-11-05T12:51:58.080Z,128.23
2022-11-05T12:54:43.457Z,131.60
2022-11-05T12:57:18.532Z,133.47
2022-11-05T12:59:58.430Z,125.10
2022-11-05T13:02:38.546Z,128.67
2022-11-05T13:05:20.706Z,127.90
2022-11-05T13:08:03.030Z,134.13
2022-11-05T13:10:40.980Z,140.37
2022-11-05T13:13:23.977Z,136.27
2022-11-05T13:16:02.141Z,144.17
2022-11-05T13:18:44.544Z,141.83
2022-11-05T13:21:20.276Z,148.00
2022-11-05T13:24:04.577Z,147.07
2022-11-05T13:26:51.106Z,144.17
2022-11-05T13:32:31.586Z,142.17
2022-11-05T13:35:09.492Z,162.20
2022-11-05T13:38:03.208Z,145.67
2022-11-05T13:40:50.191Z,144.90
2022-11-05T13:43:39.685Z,151.30
2022-11-05T13:46:34.030Z,147.50
2022-11-05T13:49:44.099Z,142.80
2022-11-05T13:52:38.007Z,154.80
2022-11-05T13:55:41.818Z,151.53
2022-11-05T13:58:40.011Z,152.40
2022-11-05T14:01:24.739Z,151.03
2022-11-05T14:04:02.262Z,149.83
2022-11-05T14:06:39.627Z,153.40
2022-11-05T14:09:16.858Z,149.87
2022-11-05T14:12:06.742Z,152.93
2022-11-05T14:14:55.871Z,145.73
2022-11-05T14:17:38.295Z,141.93
2022-11-05T14:20:40.282Z,139.70
2022-11-05T14:23:41.055Z,148.30
2022-11-05T14:26:22.735Z,156.77
2022-11-05T14:29:27.869Z,152.67
2022-11-05T14:32:28.215Z,152.37
2022-11-05T14:35:09.146Z,155.87
2022-11-05T14:37:56.841Z,148.80
2022-11-05T14:40:40.092Z,149.67
2022-11-05T14:43:25.472Z,157.87
2022-11-05T14:46:05.013Z,145.30
2022-11-05T14:48:46.531Z,145.03
2022-11-05T14:51:31.111Z,149.20
2022-11-05T14:54:09.158Z,147.47
2022-11-05T14:56:56.071Z,153.27
2022-11-05T14:59:58.710Z,158.97
2022-11-05T15:02:39.978Z,162.23
2022-11-05T15:05:43.757Z,164.83
2022-11-05T15:08:57.612Z,154.70
2022-11-05T15:11:37.605Z,157.70
2022-11-05T15:14:21.551Z,165.37
2022-11-05T15:17:00.541Z,161.37
2022-11-05T15:19:39.409Z,167.40
2022-11-05T15:22:28.745Z,154.07
2022-11-05T15:25:03.041Z,157.73
2022-11-05T15:27:51.074Z,154.60
2022-11-05T15:30:30.710Z,160.47
2022-11-05T15:33:21.643Z,160.27
2022-11-05T15:35:59.702Z,170.20
2022-11-05T15:38:38.239Z,158.67
2022-11-05T15:41:20.498Z,169.17
2022-11-05T15:44:01.983Z,156.10
2022-11-05T15:46:37.092Z,159.57
2022-11-05T15:49:13.247Z,168.67
2022-11-05T15:51:49.840Z,170.70
2022-11-05T15:54:30.656Z,170.43
2022-11-05T15:57:06.812Z,169.70
2022-11-05T15:59:40.957Z,169.33
2022-11-05T16:02:34.205Z,171.30
2022-11-05T16:05:20.944Z,163.93
2022-11-05T16:07:57.654Z,168.80
2022-11-05T16:10:34.758Z,163.80
2022-11-05T16:13:26.068Z,159.83
2022-11-05T16:16:01.862Z,165.23
2022-11-05T16:18:40.915Z,168.53
2022-11-05T16:21:18.804Z,171.70
2022-11-05T16:24:01.642Z,163.47
2022-11-05T16:27:01.761Z,167.37
2022-11-05T16:29:38.447Z,168.17
2022-11-05T16:32:24.171Z,152.40
2022-11-05T16:35:04.209Z,158.73
2022-11-05T16:37:50.702Z,155.90
2022-11-05T16:40:29.640Z,166.37
2022-11-05T16:43:21.020Z,160.27
2022-11-05T16:45:57.690Z,149.10
2022-11-05T16:48:32.283Z,160.07
2022-11-05T16:51:06.206Z,149.23
2022-11-05T16:53:40.492Z,146.00
2022-11-05T16:56:20.619Z,156.67
2022-11-05T16:58:55.701Z,150.17
2022-11-05T17:01:30.320Z,154.30
2022-11-05T17:04:04.721Z,153.40
2022-11-05T17:06:39.629Z,156.57
2022-11-05T17:09:13.754Z,152.47
2022-11-05T17:11:49.384Z,154.67
2022-11-05T17:14:23.519Z,154.43
2022-11-05T17:16:58.288Z,146.40
2022-11-05T17:19:33.641Z,148.87
2022-11-05T17:22:07.873Z,140.20
2022-11-05T17:25:02.237Z,144.93
2022-11-05T17:27:37.508Z,150.80
2022-11-05T17:30:13.319Z,144.00
2022-11-05T17:32:47.594Z,143.97
2022-11-05T17:35:22.138Z,156.43
2022-11-05T17:37:56.759Z,148.47
2022-11-05T17:40:30.666Z,144.70
2022-11-05T17:43:07.226Z,145.63
2022-11-05T17:45:46.001Z,139.97
2022-11-05T17:48:20.049Z,142.00
2022-11-05T17:50:55.090Z,139.43
2022-11-05T17:53:30.040Z,151.73
2022-11-05T17:56:03.648Z,143.70
2022-11-05T17:58:40.366Z,155.77
2022-11-05T18:01:28.269Z,151.70
2022-11-05T18:04:08.666Z,146.10
2022-11-05T18:06:44.535Z,153.20
2022-11-05T18:09:18.694Z,149.93
2022-11-05T18:11:54.422Z,164.43
2022-11-05T18:14:30.206Z,154.17
2022-11-05T18:17:03.775Z,156.20
2022-11-05T18:19:39.544Z,155.63
2022-11-05T18:22:14.525Z,153.03
2022-11-05T18:24:49.054Z,154.93
2022-11-05T18:27:25.756Z,157.57
2022-11-05T18:30:00.993Z,150.67
2022-11-05T18:32:35.290Z,151.37
2022-11-05T18:35:10.217Z,145.53
2022-11-05T18:37:44.659Z,141.33
2022-11-05T18:40:18.978Z,154.77
2022-11-05T18:42:52.587Z,151.20
2022-11-05T18:45:29.930Z,147.63
2022-11-05T18:48:06.223Z,142.07
2022-11-05T18:50:39.423Z,152.93
2022-11-05T18:53:13.802Z,160.27
2022-11-05T18:55:48.044Z,155.17
2022-11-05T18:58:22.161Z,150.43
2022-11-05T19:01:00.226Z,148.03
2022-11-05T19:03:38.175Z,150.50
2022-11-05T19:06:12.405Z,144.03
2022-11-05T19:08:46.619Z,137.40
2022-11-05T19:11:21.828Z,145.07
2022-11-05T19:13:56.364Z,154.83
2022-11-05T19:16:33.886Z,149.47
2022-11-05T19:19:09.760Z,151.77
2022-11-05T19:21:43.917Z,144.10
2022-11-05T19:24:17.457Z,157.60
2022-11-05T19:26:51.757Z,148.07
2022-11-05T19:29:25.162Z,148.00
2022-11-05T19:32:01.669Z,147.43
2022-11-05T19:34:35.757Z,148.53
2022-11-05T19:37:10.329Z,147.13
2022-11-05T19:39:45.120Z,142.63
2022-11-05T19:42:20.177Z,146.70
2022-11-05T19:44:53.855Z,149.30
2022-11-05T19:47:30.582Z,142.00
2022-11-05T19:50:05.653Z,140.87
2022-11-05T19:52:39.457Z,145.23
2022-11-05T19:55:14.575Z,153.57
2022-11-05T19:57:49.502Z,146.27
2022-11-05T20:00:23.043Z,148.83
2022-11-05T20:02:58.645Z,149.73
2022-11-05T20:05:32.541Z,147.53
2022-11-05T20:08:07.916Z,148.63
2022-11-05T20:10:42.785Z,150.83
2022-11-05T20:13:19.942Z,150.77
2022-11-05T20:15:54.349Z,157.47
2022-11-05T20:18:31.704Z,144.97
2022-11-05T20:21:10.080Z,142.23
2022-11-05T20:23:43.861Z,147.50
2022-11-05T20:26:21.408Z,145.47
2022-11-05T20:28:55.318Z,139.57
2022-11-05T20:31:31.859Z,147.27
2022-11-05T20:34:07.541Z,143.17
2022-11-05T20:36:43.547Z,139.00
2022-11-05T20:39:17.856Z,154.70
2022-11-05T20:41:52.315Z,151.40
2022-11-05T20:44:26.826Z,153.77
2022-11-05T20:47:00.809Z,155.40
2022-11-05T20:49:37.298Z,150.53
2022-11-05T20:52:13.386Z,148.57
2022-11-05T20:54:48.400Z,149.67
2022-11-05T20:57:22.839Z,160.53
2022-11-05T20:59:57.228Z,154.00
2022-11-05T21:02:32.215Z,157.87
2022-11-05T21:05:09.771Z,159.47
2022-11-05T21:07:45.583Z,157.70
2022-11-05T21:10:19.164Z,150.87
2022-11-05T21:12:54.032Z,159.00
2022-11-05T21:15:28.314Z,152.37
2022-11-05T21:18:01.898Z,156.90
2022-11-05T21:20:37.936Z,162.03
2022-11-05T21:23:11.417Z,156.97
2022-11-05T21:26:02.874Z,158.10
2022-11-05T21:28:36.704Z,158.37
2022-11-05T21:31:11.264Z,152.43
2022-11-05T21:33:45.433Z,155.33
2022-11-05T21:36:22.751Z,155.10
2022-11-05T21:38:56.882Z,160.17
2022-11-05T21:41:31.132Z,151.33
2022-11-05T21:44:06.763Z,152.17
2022-11-05T21:46:42.168Z,158.17
2022-11-05T21:49:17.500Z,156.73
2022-11-05T21:52:09.120Z,163.07
2022-11-05T21:54:59.529Z,161.00
2022-11-05T21:57:48.847Z,162.30
2022-11-05T22:00:23.278Z,156.50
2022-11-05T22:02:58.404Z,163.63
2022-11-05T22:05:32.160Z,159.17
2022-11-05T22:08:08.869Z,169.83
2022-11-05T22:11:00.451Z,168.83
2022-11-05T22:13:34.162Z,174.40
2022-11-05T22:16:08.136Z,162.60
2022-11-05T22:18:42.985Z,158.27
2022-11-05T22:21:22.445Z,167.77
2022-11-05T22:23:58.430Z,165.33
2022-11-05T22:26:32.370Z,168.60
2022-11-05T22:29:06.474Z,167.37
2022-11-05T22:31:39.863Z,170.33
2022-11-05T22:34:15.058Z,161.30
2022-11-05T22:36:49.360Z,165.30
2022-11-05T22:39:25.826Z,168.07
2022-11-05T22:42:07.109Z,166.37
2022-11-05T22:44:42.890Z,164.30
2022-11-05T22:47:20.405Z,174.80
2022-11-05T22:49:55.772Z,167.33
2022-11-05T22:52:30.214Z,166.70
2022-11-05T22:55:07.403Z,179.40
2022-11-05T22:57:42.599Z,176.60
2022-11-05T23:00:22.099Z,165.00
2022-11-05T23:02:56.905Z,176.67
2022-11-05T23:05:31.318Z,171.77
2022-11-05T23:08:17.714Z,189.90
2022-11-05T23:11:09.132Z,175.03
2022-11-05T23:13:43.463Z,173.00
2022-11-05T23:16:47.835Z,185.20
2022-11-05T23:19:43.493Z,180.67
2022-11-05T23:22:35.496Z,190.33
2022-11-05T23:25:12.348Z,176.47
2022-11-05T23:27:50.037Z,179.93
2022-11-05T23:30:25.134Z,193.33
2022-11-05T23:33:00.304Z,185.70
2022-11-05T23:35:49.885Z,178.07
2022-11-05T23:41:44.436Z,183.97
2022-11-05T23:44:36.361Z,185.23
2022-11-05T23:47:25.998Z,175.30
2022-11-05T23:50:00.128Z,189.77
2022-11-05T23:52:34.574Z,181.47
2022-11-05T23:55:09.637Z,181.63
2022-11-05T23:57:43.201Z,181.70
